createdAt,value
2022-11-30T00:00:45.730Z,22.20
2022-11-30T00:03:52.912Z,23.60
2022-11-30T00:07:00.461Z,23.40
2022-11-30T00:10:07.611Z,21.60
2022-11-30T00:13:14.704Z,22.10
2022-11-30T00:16:22.141Z,22.20
2022-11-30T00:19:28.933Z,21.80
2022-11-30T00:22:35.776Z,21.80
2022-11-30T00:25:43.393Z,22.00
2022-11-30T00:28:51.086Z,21.60
2022-11-30T00:31:58.154Z,21.90
2022-11-30T00:35:05.597Z,22.40
2022-11-30T00:38:12.597Z,21.90
2022-11-30T00:41:19.611Z,21.60
2022-11-30T00:44:27.047Z,21.70
2022-11-30T00:47:34.215Z,21.30
2022-11-30T00:50:41.331Z,21.20
2022-11-30T00:53:48.542Z,22.20
2022-11-30T00:56:56.033Z,21.40
2022-11-30T01:00:03.169Z,22.50
2022-11-30T01:03:10.333Z,21.60
2022-11-30T01:06:17.779Z,21.40
2022-11-30T01:09:24.950Z,22.30
2022-11-30T01:12:31.952Z,22.60
2022-11-30T01:15:39.530Z,23.50
2022-11-30T01:18:46.711Z,24.10
2022-11-30T01:21:53.862Z,22.60
2022-11-30T01:25:01.014Z,23.20
2022-11-30T01:28:07.813Z,23.90
2022-11-30T01:31:15.434Z,22.60
2022-11-30T01:34:22.563Z,24.80
2022-11-30T01:37:29.668Z,23.20
2022-11-30T01:40:36.974Z,25.30
2022-11-30T01:43:43.625Z,23.70
2022-11-30T01:46:51.096Z,23.20
2022-11-30T01:49:58.165Z,23.00
2022-11-30T01:53:04.654Z,22.70
2022-11-30T01:56:11.861Z,23.10
2022-11-30T01:59:19.947Z,22.70
2022-11-30T02:02:26.414Z,21.90
2022-11-30T02:05:33.518Z,21.90
2022-11-30T02:08:40.341Z,22.20
2022-11-30T02:11:46.953Z,23.40
2022-11-30T02:14:54.204Z,22.00
2022-11-30T02:18:01.171Z,22.50
2022-11-30T02:21:07.662Z,22.50
2022-11-30T02:24:14.235Z,23.40
2022-11-30T02:27:21.522Z,22.50
2022-11-30T02:30:28.354Z,22.30
2022-11-30T02:33:35.061Z,23.30
2022-11-30T02:36:42.215Z,23.90
2022-11-30T02:39:48.936Z,22.50
2022-11-30T02:42:55.770Z,22.40
2022-11-30T02:46:03.090Z,23.80
2022-11-30T02:49:09.524Z,22.90
2022-11-30T02:52:16.645Z,22.20
2022-11-30T02:55:23.788Z,22.40
2022-11-30T02:58:30.206Z,21.30
2022-11-30T03:01:37.529Z,23.00
2022-11-30T03:04:44.740Z,22.40
2022-11-30T03:07:51.364Z,23.30
2022-11-30T03:10:58.439Z,23.00
2022-11-30T03:14:05.159Z,23.30
2022-11-30T03:17:11.960Z,23.00
2022-11-30T03:20:18.719Z,22.90
2022-11-30T03:23:25.442Z,23.30
2022-11-30T03:26:32.287Z,25.60
2022-11-30T03:29:38.992Z,23.70
2022-11-30T03:32:46.132Z,25.20
2022-11-30T03:35:52.823Z,25.80
2022-11-30T03:38:59.614Z,23.70
2022-11-30T03:42:06.484Z,24.70
2022-11-30T03:45:13.164Z,24.00
2022-11-30T03:48:19.856Z,25.10
2022-11-30T03:51:26.651Z,24.80
2022-11-30T03:54:33.414Z,24.70
2022-11-30T03:57:40.585Z,24.20
2022-11-30T04:00:47.385Z,23.80
2022-11-30T04:03:54.186Z,25.20
2022-11-30T04:07:01.297Z,24.90
2022-11-30T04:10:08.798Z,23.50
2022-11-30T04:13:15.638Z,23.70
2022-11-30T04:16:22.813Z,24.30
2022-11-30T04:19:29.178Z,25.20
2022-11-30T04:22:36.299Z,25.30
2022-11-30T04:25:43.410Z,24.10
2022-11-30T04:28:49.841Z,24.60
2022-11-30T04:31:56.570Z,25.40
2022-11-30T04:35:03.412Z,25.40
2022-11-30T04:38:10.122Z,24.20
2022-11-30T04:41:17.372Z,25.20
2022-11-30T04:44:24.192Z,25.00
2022-11-30T04:47:31.073Z,25.30
2022-11-30T04:50:37.729Z,24.40
2022-11-30T04:53:44.874Z,25.40
2022-11-30T04:56:51.804Z,25.50
2022-11-30T04:59:58.604Z,26.00
2022-11-30T05:03:05.456Z,26.90
2022-11-30T05:06:12.425Z,26.90
2022-11-30T05:09:19.267Z,26.00
2022-11-30T05:12:25.815Z,26.90
2022-11-30T05:15:32.257Z,25.90
2022-11-30T05:18:39.581Z,26.20
2022-11-30T05:21:46.488Z,27.60
2022-11-30T05:24:53.377Z,27.20
2022-11-30T05:28:00.668Z,26.20
2022-11-30T05:31:07.274Z,26.30
2022-11-30T05:34:14.489Z,26.60
2022-11-30T05:37:21.599Z,26.80
2022-11-30T05:40:28.120Z,27.80
2022-11-30T05:43:35.452Z,26.70
2022-11-30T05:46:42.500Z,28.40
2022-11-30T05:49:49.324Z,29.60
2022-11-30T05:52:56.695Z,29.10
2022-11-30T05:56:03.573Z,28.30
2022-11-30T05:59:10.453Z,28.70
2022-11-30T06:02:17.073Z,28.90
2022-11-30T06:05:24.274Z,29.40
2022-11-30T06:08:31.254Z,29.10
2022-11-30T06:11:38.165Z,29.10
2022-11-30T06:14:45.572Z,29.80
2022-11-30T06:17:52.239Z,29.30
2022-11-30T06:20:59.247Z,29.40
2022-11-30T06:24:06.336Z,29.40
2022-11-30T06:27:12.828Z,28.90
2022-11-30T06:30:20.200Z,28.00
2022-11-30T06:33:27.025Z,27.90
2022-11-30T06:36:36.237Z,27.50
2022-11-30T06:40:05.393Z,28.50
2022-11-30T06:42:47.820Z,28.80
2022-11-30T06:45:54.838Z,26.80
2022-11-30T06:49:02.149Z,29.20
2022-11-30T06:52:09.083Z,28.70
2022-11-30T06:55:16.234Z,28.90
2022-11-30T06:58:24.230Z,29.60
2022-11-30T07:01:31.677Z,29.40
2022-11-30T07:04:38.964Z,28.10
2022-11-30T07:07:46.287Z,30.50
2022-11-30T07:10:54.005Z,29.30
2022-11-30T07:14:01.375Z,30.60
2022-11-30T07:17:08.636Z,31.90
2022-11-30T07:20:16.155Z,32.00
2022-11-30T07:23:23.413Z,30.90
2022-11-30T07:26:30.806Z,30.90
2022-11-30T07:29:38.215Z,29.70
2022-11-30T07:32:45.167Z,28.70
2022-11-30T07:35:52.995Z,31.60
2022-11-30T07:39:00.637Z,32.20
2022-11-30T07:42:07.629Z,31.40
2022-11-30T07:45:15.468Z,32.70
2022-11-30T07:48:22.820Z,30.40
2022-11-30T07:51:29.769Z,32.50
2022-11-30T07:54:37.112Z,32.20
2022-11-30T07:57:43.975Z,30.80
2022-11-30T08:00:51.009Z,32.10
2022-11-30T08:03:58.232Z,31.10
2022-11-30T08:07:05.106Z,31.70
2022-11-30T08:10:12.382Z,30.90
2022-11-30T08:13:19.203Z,31.00
2022-11-30T08:16:26.061Z,31.10
2022-11-30T08:19:32.506Z,31.00
2022-11-30T08:22:39.185Z,30.70
2022-11-30T08:25:46.324Z,29.90
2022-11-30T08:28:53.144Z,31.00
2022-11-30T08:31:59.841Z,33.00
2022-11-30T08:35:06.759Z,34.30
2022-11-30T08:38:13.529Z,33.20
2022-11-30T08:41:20.339Z,34.80
2022-11-30T08:44:27.498Z,33.90
2022-11-30T08:47:33.980Z,33.50
2022-11-30T08:50:41.180Z,33.20
2022-11-30T08:53:48.389Z,32.90
2022-11-30T08:56:54.751Z,31.90
2022-11-30T09:00:02.172Z,35.30
2022-11-30T09:03:09.202Z,33.70
2022-11-30T09:06:15.684Z,33.20
2022-11-30T09:09:22.593Z,34.30
2022-11-30T09:12:29.423Z,32.90
2022-11-30T09:15:36.336Z,36.00
2022-11-30T09:18:43.432Z,33.20
2022-11-30T09:21:52.291Z,34.10
2022-11-30T09:24:59.541Z,34.80
2022-11-30T09:28:10.869Z,35.30
2022-11-30T09:31:08.423Z,33.70
2022-11-30T09:34:15.307Z,34.70
2022-11-30T09:37:22.428Z,33.80
2022-11-30T09:40:34.016Z,32.80
2022-11-30T09:43:31.728Z,34.30
2022-11-30T09:46:38.559Z,34.40
2022-11-30T09:49:45.889Z,34.00
2022-11-30T09:52:52.729Z,34.90
2022-11-30T09:55:59.450Z,34.00
2022-11-30T09:59:06.565Z,33.90
2022-11-30T10:02:13.475Z,34.10
2022-11-30T10:05:20.253Z,34.10
2022-11-30T10:08:26.833Z,32.50
2022-11-30T10:11:33.594Z,33.70
2022-11-30T10:14:40.725Z,33.90
2022-11-30T10:17:47.462Z,33.30
2022-11-30T10:20:54.294Z,33.30
2022-11-30T10:24:01.476Z,34.30
2022-11-30T10:27:07.955Z,32.30
2022-11-30T10:30:14.942Z,32.20
2022-11-30T10:33:22.008Z,31.20
2022-11-30T10:36:28.427Z,31.50
2022-11-30T10:39:35.208Z,28.80
2022-11-30T10:42:42.182Z,28.70
2022-11-30T10:45:48.588Z,28.60
2022-11-30T10:48:55.620Z,29.10
2022-11-30T10:52:02.319Z,29.90
2022-11-30T10:55:09.096Z,29.90
2022-11-30T10:58:16.109Z,27.80
2022-11-30T11:01:22.843Z,29.70
2022-11-30T11:04:29.643Z,28.60
2022-11-30T11:07:36.415Z,27.90
2022-11-30T11:10:43.413Z,31.30
2022-11-30T11:13:50.194Z,31.30
2022-11-30T11:16:56.952Z,30.20
2022-11-30T11:20:03.943Z,32.10
2022-11-30T11:23:10.989Z,31.90
2022-11-30T11:26:17.873Z,30.30
2022-11-30T11:29:24.845Z,30.50
2022-11-30T11:32:31.302Z,28.80
2022-11-30T11:35:38.376Z,29.30
2022-11-30T11:38:45.589Z,29.70
2022-11-30T11:41:51.988Z,29.00
2022-11-30T11:44:59.439Z,29.50
2022-11-30T11:48:06.367Z,28.50
2022-11-30T11:51:13.308Z,29.80
2022-11-30T11:54:20.380Z,30.50
2022-11-30T11:57:27.130Z,29.70
2022-11-30T12:00:34.041Z,30.00
2022-11-30T12:03:40.831Z,33.60
2022-11-30T12:06:47.613Z,30.20
2022-11-30T12:09:54.500Z,33.10
2022-11-30T12:13:01.362Z,32.60
2022-11-30T12:16:08.333Z,33.40
2022-11-30T12:19:15.204Z,32.80
2022-11-30T12:22:22.145Z,35.00
2022-11-30T12:25:28.983Z,35.40
2022-11-30T12:28:35.664Z,34.90
2022-11-30T12:31:42.700Z,35.90
2022-11-30T12:34:49.391Z,34.30
2022-11-30T12:37:56.214Z,36.20
2022-11-30T12:41:03.437Z,38.30
2022-11-30T12:44:10.108Z,38.60
2022-11-30T12:47:16.858Z,37.50
2022-11-30T12:50:23.998Z,40.90
2022-11-30T12:53:30.521Z,40.90
2022-11-30T12:56:40.253Z,41.50
2022-11-30T12:59:40.300Z,41.70
2022-11-30T13:02:46.881Z,41.90
2022-11-30T13:05:53.900Z,41.80
2022-11-30T13:09:00.650Z,43.60
2022-11-30T13:12:07.112Z,43.70
2022-11-30T13:15:15.947Z,42.00
2022-11-30T13:18:22.498Z,43.70
2022-11-30T13:21:29.794Z,43.20
2022-11-30T13:24:36.874Z,44.00
2022-11-30T13:27:43.360Z,42.40
2022-11-30T13:30:50.363Z,44.80
2022-11-30T13:33:57.385Z,42.60
2022-11-30T13:37:04.182Z,44.90
2022-11-30T13:40:11.297Z,45.40
2022-11-30T13:43:18.063Z,46.60
2022-11-30T13:46:24.922Z,46.40
2022-11-30T13:49:31.954Z,45.30
2022-11-30T13:52:38.848Z,44.70
2022-11-30T13:55:45.614Z,45.10
2022-11-30T13:58:52.778Z,43.60
2022-11-30T14:04:34.690Z,44.70
2022-11-30T14:07:41.470Z,45.00
2022-11-30T14:10:48.460Z,44.60
2022-11-30T14:13:55.211Z,44.90
2022-11-30T14:17:02.165Z,43.40
2022-11-30T14:20:09.281Z,40.80
2022-11-30T14:23:16.132Z,42.60
2022-11-30T14:26:22.912Z,41.90
2022-11-30T14:29:29.934Z,42.90
2022-11-30T14:32:36.433Z,43.00
2022-11-30T14:35:43.635Z,43.40
2022-11-30T14:38:50.929Z,43.60
2022-11-30T14:41:57.404Z,42.70
2022-11-30T14:45:04.576Z,43.60
2022-11-30T14:48:11.866Z,42.80
2022-11-30T14:51:18.396Z,41.40
2022-11-30T14:54:25.659Z,41.10
2022-11-30T14:57:32.649Z,40.90
2022-11-30T15:00:39.562Z,40.30
2022-11-30T15:03:46.879Z,39.90
2022-11-30T15:06:53.629Z,42.50
2022-11-30T15:10:00.288Z,41.60
2022-11-30T15:13:07.049Z,41.10
2022-11-30T15:16:14.001Z,40.80
2022-11-30T15:19:20.763Z,43.30
2022-11-30T15:22:27.422Z,44.40
2022-11-30T15:25:34.405Z,41.20
2022-11-30T15:28:41.142Z,40.60
2022-11-30T15:31:47.963Z,40.80
2022-11-30T15:34:56.758Z,41.30
2022-11-30T15:38:03.543Z,41.70
2022-11-30T15:41:10.917Z,40.50
2022-11-30T15:44:18.406Z,39.10
2022-11-30T15:47:25.067Z,40.20
2022-11-30T15:50:32.313Z,38.40
2022-11-30T15:53:39.516Z,38.70
2022-11-30T15:56:46.285Z,39.90
2022-11-30T15:59:53.565Z,39.50
2022-11-30T16:03:00.765Z,38.60
2022-11-30T16:06:07.877Z,37.80
2022-11-30T16:09:15.502Z,40.40
2022-11-30T16:12:22.459Z,39.10
2022-11-30T16:15:29.490Z,38.80
2022-11-30T16:18:36.900Z,40.20
2022-11-30T16:21:43.980Z,38.50
2022-11-30T16:24:51.108Z,40.30
2022-11-30T16:27:58.140Z,39.10
2022-11-30T16:31:05.681Z,39.50
2022-11-30T16:34:12.895Z,39.00
2022-11-30T16:37:20.063Z,41.70
2022-11-30T16:40:27.408Z,38.40
2022-11-30T16:43:34.281Z,41.20
2022-11-30T16:46:41.444Z,42.70
2022-11-30T16:49:48.950Z,47.70
2022-11-30T16:52:55.885Z,44.80
2022-11-30T16:56:03.356Z,41.90
2022-11-30T16:59:16.493Z,42.50
2022-11-30T17:02:12.964Z,46.40
2022-11-30T17:05:20.748Z,42.00
2022-11-30T17:08:27.907Z,42.10
2022-11-30T17:11:35.146Z,43.20
2022-11-30T17:14:42.678Z,50.00
2022-11-30T17:17:49.850Z,42.40
2022-11-30T17:20:56.908Z,39.80
2022-11-30T17:24:04.099Z,39.30
2022-11-30T17:27:13.119Z,40.70
2022-11-30T17:30:19.824Z,41.50
2022-11-30T17:33:26.551Z,41.70
2022-11-30T17:36:33.821Z,40.60
2022-11-30T17:39:40.781Z,40.30
2022-11-30T17:42:47.283Z,41.40
2022-11-30T17:45:54.759Z,42.40
2022-11-30T17:49:02.014Z,41.50
2022-11-30T17:52:08.583Z,41.80
2022-11-30T17:55:15.894Z,42.20
2022-11-30T17:58:22.467Z,41.50
2022-11-30T18:01:30.152Z,41.30
2022-11-30T18:04:37.455Z,41.70
2022-11-30T18:07:44.005Z,40.30
2022-11-30T18:10:51.204Z,41.40
2022-11-30T18:13:58.437Z,42.00
2022-11-30T18:17:05.010Z,41.00
2022-11-30T18:20:11.981Z,40.00
2022-11-30T18:23:18.407Z,41.10
2022-11-30T18:26:25.267Z,41.20
2022-11-30T18:29:32.457Z,39.50
2022-11-30T18:32:38.961Z,40.30
2022-11-30T18:35:46.297Z,41.60
2022-11-30T18:38:53.390Z,41.10
2022-11-30T18:41:59.850Z,43.80
2022-11-30T18:45:06.744Z,40.50
2022-11-30T18:48:13.825Z,40.60
2022-11-30T18:51:21.133Z,41.50
2022-11-30T18:54:30.396Z,57.50
2022-11-30T18:57:37.881Z,49.70
2022-11-30T19:00:44.915Z,40.80
2022-11-30T19:03:52.233Z,42.10
2022-11-30T19:07:00.543Z,40.60
2022-11-30T19:10:07.703Z,41.00
2022-11-30T19:13:14.563Z,40.20
2022-11-30T19:16:22.037Z,41.80
2022-11-30T19:19:28.620Z,40.00
2022-11-30T19:22:35.227Z,39.30
2022-11-30T19:25:42.246Z,42.40
2022-11-30T19:28:49.077Z,39.20
2022-11-30T19:31:55.527Z,38.40
2022-11-30T19:35:02.378Z,38.00
2022-11-30T19:38:08.845Z,37.50
2022-11-30T19:41:16.161Z,37.50
2022-11-30T19:44:22.999Z,39.80
2022-11-30T19:47:29.420Z,36.00
2022-11-30T19:50:36.630Z,35.50
2022-11-30T19:53:43.022Z,37.30
2022-11-30T19:56:49.541Z,38.60
2022-11-30T19:59:56.833Z,36.50
2022-11-30T20:03:03.407Z,35.50
2022-11-30T20:06:10.462Z,34.40
2022-11-30T20:09:17.273Z,35.50
2022-11-30T20:12:23.681Z,35.70
2022-11-30T20:15:30.563Z,34.90
2022-11-30T20:18:41.280Z,33.90
2022-11-30T20:21:38.605Z,33.40
2022-11-30T20:24:46.232Z,35.30
2022-11-30T20:27:53.148Z,33.80
2022-11-30T20:31:00.777Z,34.40
2022-11-30T20:34:07.666Z,34.50
2022-11-30T20:37:14.682Z,33.10
2022-11-30T20:40:21.528Z,33.80
2022-11-30T20:43:28.264Z,32.50
2022-11-30T20:46:35.500Z,33.60
2022-11-30T20:49:42.307Z,33.80
2022-11-30T20:52:49.249Z,32.20
2022-11-30T20:55:56.450Z,33.60
2022-11-30T20:59:03.361Z,31.80
2022-11-30T21:02:10.454Z,32.40
2022-11-30T21:05:18.129Z,32.30
2022-11-30T21:08:25.283Z,45.40
2022-11-30T21:11:33.303Z,32.60
2022-11-30T21:14:41.242Z,34.60
2022-11-30T21:17:48.265Z,32.70
2022-11-30T21:20:56.221Z,32.90
2022-11-30T21:24:04.116Z,32.60
2022-11-30T21:27:11.338Z,32.90
2022-11-30T21:30:19.265Z,34.20
2022-11-30T21:33:26.745Z,34.50
2022-11-30T21:36:34.355Z,32.10
2022-11-30T21:39:42.166Z,34.00
2022-11-30T21:42:49.292Z,33.30
2022-11-30T21:45:57.238Z,33.90
2022-11-30T21:49:04.877Z,33.10
2022-11-30T21:52:11.835Z,34.00
2022-11-30T21:55:19.672Z,32.50
2022-11-30T21:58:27.206Z,33.30
2022-11-30T22:01:34.653Z,34.60
2022-11-30T22:04:42.449Z,34.30
2022-11-30T22:07:49.606Z,35.30
2022-11-30T22:10:57.261Z,34.40
2022-11-30T22:14:04.800Z,34.30
2022-11-30T22:17:11.971Z,34.20
2022-11-30T22:20:19.893Z,34.60
2022-11-30T22:23:27.588Z,34.50
2022-11-30T22:26:35.613Z,34.20
2022-11-30T22:29:42.865Z,34.80
2022-11-30T22:32:50.415Z,37.60
2022-11-30T22:35:57.650Z,36.80
2022-11-30T22:39:04.481Z,38.50
2022-11-30T22:42:11.289Z,39.80
2022-11-30T22:45:18.416Z,40.80
2022-11-30T22:48:25.225Z,40.00
2022-11-30T22:51:32.057Z,40.40
2022-11-30T22:54:39.500Z,40.30
2022-11-30T22:57:45.936Z,42.20
2022-11-30T23:00:53.177Z,43.40
2022-11-30T23:04:00.328Z,42.20
2022-11-30T23:07:06.758Z,46.00
2022-11-30T23:10:13.768Z,45.20
2022-11-30T23:13:20.740Z,45.30
2022-11-30T23:16:27.762Z,46.10
2022-11-30T23:19:34.570Z,47.20
2022-11-30T23:22:41.321Z,47.40
2022-11-30T23:25:48.300Z,46.70
2022-11-30T23:28:55.161Z,48.20
2022-11-30T23:32:02.135Z,48.60
2022-11-30T23:35:09.001Z,49.10
2022-11-30T23:38:15.402Z,48.90
2022-11-30T23:41:22.603Z,48.90
2022-11-30T23:44:29.821Z,48.50
2022-11-30T23:47:36.263Z,47.40
2022-11-30T23:50:43.478Z,46.30
2022-11-30T23:53:50.228Z,46.50
2022-11-30T23:56:57.118Z,47.20
